Time;durP1;ratioP1;P1;durP2;ratioP2;P2;SDS_P1;SDS_P2;PMS_P1;PMS_P2;Temp;Humidity;BMP_temperature;BMP_pressure;BME280_temperature;BME280_humidity;BME280_pressure;Samples;Min_cycle;Max_cycle;Signal;HPM_P1;HPM_P2
2021/12/26 00:00:34;;;;;;;30.48;18.50;;;-6.80;99.90;;;;;;5067236;28;20044;-42
2021/12/26 00:03:01;;;;;;;30.90;17.85;;;-6.80;99.90;;;;;;5050092;28;20063;-41
2021/12/26 00:05:28;;;;;;;46.88;26.17;;;-6.80;99.90;;;;;;5049641;28;20368;-42
2021/12/26 00:07:56;;;;;;;47.80;24.20;;;-6.80;99.90;;;;;;5069862;28;20037;-42
2021/12/26 00:10:25;;;;;;;17.00;8.68;;;-6.80;99.90;;;;;;5043020;28;20041;-41
2021/12/26 00:12:53;;;;;;;16.85;8.20;;;-6.80;99.90;;;;;;5048186;28;20530;-42
2021/12/26 00:15:19;;;;;;;15.15;9.20;;;-6.80;99.90;;;;;;5040519;28;20370;-42
2021/12/26 00:17:45;;;;;;;9.07;5.57;;;-6.80;99.90;;;;;;5054680;28;20061;-41
2021/12/26 00:20:12;;;;;;;6.93;3.70;;;-6.80;99.90;;;;;;5067964;28;20064;-41
2021/12/26 00:22:39;;;;;;;6.25;3.20;;;-6.70;99.90;;;;;;5066086;28;20041;-41
2021/12/26 00:25:06;;;;;;;;;;;-6.70;99.90;;;;;;5032268;28;20150;-41
2021/12/26 00:27:32;;;;;;;7.38;2.95;;;-5.50;99.90;;;;;;5048196;28;19940;-42
2021/12/26 00:29:58;;;;;;;6.40;3.28;;;-6.70;99.90;;;;;;5047940;28;20463;-42
2021/12/26 00:32:24;;;;;;;5.72;2.63;;;-6.80;99.90;;;;;;5031436;28;20045;-42
2021/12/26 00:34:50;;;;;;;8.70;3.30;;;-6.80;99.90;;;;;;5051503;28;20052;-42
2021/12/26 00:37:17;;;;;;;6.28;3.05;;;-6.70;99.90;;;;;;5065336;28;20490;-41
2021/12/26 00:39:43;;;;;;;5.72;2.95;;;-6.80;99.90;;;;;;5062131;28;20048;-42
2021/12/26 00:42:09;;;;;;;6.03;2.75;;;-6.80;99.90;;;;;;5053223;28;20045;-42
2021/12/26 00:44:41;;;;;;;7.82;3.05;;;-6.80;99.90;;;;;;5062123;28;20493;-41
2021/12/26 00:47:08;;;;;;;5.50;2.75;;;-5.60;99.90;;;;;;5051044;28;20452;-42
2021/12/26 00:49:34;;;;;;;5.65;2.60;;;-6.80;99.90;;;;;;5052575;28;20045;-42
2021/12/26 00:52:00;;;;;;;8.25;3.30;;;-6.90;99.90;;;;;;5065919;28;20102;-42
2021/12/26 00:54:26;;;;;;;7.93;2.85;;;-6.90;99.90;;;;;;5061578;28;20553;-41
2021/12/26 00:56:52;;;;;;;5.35;2.60;;;-6.90;99.90;;;;;;5070343;28;20119;-42
2021/12/26 00:59:18;;;;;;;5.38;2.42;;;-6.90;99.90;;;;;;5050663;28;20045;-41
2021/12/26 01:01:44;;;;;;;6.30;2.60;;;-6.90;99.90;;;;;;5056885;28;20127;-41
2021/12/26 01:04:13;;;;;;;7.22;3.00;;;-6.90;99.90;;;;;;5052019;28;20140;-42
2021/12/26 01:06:40;;;;;;;7.78;2.70;;;-6.90;99.90;;;;;;5057571;28;20274;-42
2021/12/26 01:09:28;;;;;;;7.05;2.50;;;-6.80;99.90;;;;;;5051850;28;20055;-41
2021/12/26 01:11:59;;;;;;;5.30;2.00;;;-6.70;99.90;;;;;;5057063;28;20072;-42
2021/12/26 01:14:30;;;;;;;7.30;2.80;;;-6.60;99.90;;;;;;5055740;28;20056;-41
2021/12/26 01:17:09;;;;;;;5.43;2.53;;;-6.60;99.90;;;;;;5062585;28;20112;-41
2021/12/26 01:19:44;;;;;;;7.00;2.88;;;-6.50;99.90;;;;;;5056496;28;20056;-42
2021/12/26 01:22:10;;;;;;;5.45;3.05;;;-6.50;99.90;;;;;;5059637;28;20367;-41
2021/12/26 01:24:36;;;;;;;8.45;3.78;;;-6.50;99.90;;;;;;5049861;28;20493;-41
2021/12/26 01:27:03;;;;;;;6.72;2.95;;;-6.40;99.90;;;;;;5033539;28;20051;-42
2021/12/26 01:29:29;;;;;;;6.93;2.92;;;-6.50;99.90;;;;;;5049737;28;20072;-42
2021/12/26 01:31:55;;;;;;;6.05;2.95;;;-6.50;99.90;;;;;;5050481;28;20041;-42
2021/12/26 01:34:20;;;;;;;5.03;2.45;;;-6.60;99.90;;;;;;5088139;28;20041;-42
2021/12/26 01:36:47;;;;;;;6.13;2.28;;;-6.60;99.90;;;;;;5065026;28;20098;-42
2021/12/26 01:39:13;;;;;;;6.07;2.40;;;-6.60;99.90;;;;;;5064846;28;20045;-41
2021/12/26 01:41:42;;;;;;;7.60;2.42;;;-6.60;99.90;;;;;;5067255;28;20218;-41
2021/12/26 01:44:11;;;;;;;4.53;2.03;;;-6.60;99.90;;;;;;5056879;28;20048;-42
2021/12/26 01:46:39;;;;;;;4.38;2.20;;;-6.60;99.90;;;;;;5057910;28;20041;-41
2021/12/26 01:49:09;;;;;;;;;;;-6.60;99.90;;;;;;5050334;28;20041;-42
2021/12/26 01:51:36;;;;;;;4.32;1.88;;;-6.60;99.90;;;;;;5057597;28;19917;-41
2021/12/26 01:54:06;;;;;;;3.78;2.15;;;-6.60;99.90;;;;;;5071738;28;20112;-42
2021/12/26 01:56:33;;;;;;;4.50;1.85;;;-6.60;99.90;;;;;;5053443;28;20045;-41
2021/12/26 01:59:00;;;;;;;3.93;2.00;;;-6.60;99.90;;;;;;5054066;28;20041;-41
2021/12/26 02:01:27;;;;;;;3.72;1.92;;;-6.60;99.90;;;;;;5063571;28;20056;-42
2021/12/26 02:03:53;;;;;;;4.15;1.83;;;-6.70;99.90;;;;;;5033471;28;20087;-41
2021/12/26 02:06:21;;;;;;;4.15;1.85;;;-6.60;99.90;;;;;;5065302;28;20052;-42
2021/12/26 02:08:48;;;;;;;4.43;1.90;;;-6.60;99.90;;;;;;5061808;28;20076;-41
2021/12/26 02:11:14;;;;;;;4.63;1.90;;;-6.60;99.90;;;;;;5044071;28;20069;-42
2021/12/26 02:13:40;;;;;;;4.23;1.90;;;-6.60;99.90;;;;;;5082918;28;20045;-41
2021/12/26 02:16:08;;;;;;;6.10;2.50;;;-6.60;99.90;;;;;;5050672;28;20052;-42
2021/12/26 02:18:34;;;;;;;6.60;2.35;;;-6.60;99.90;;;;;;5054721;28;20039;-42
2021/12/26 02:23:46;;;;;;;4.70;2.15;;;-6.60;99.90;;;;;;5052261;28;20045;-42
2021/12/26 02:28:44;;;;;;;4.70;2.15;;;-6.70;99.90;;;;;;5049737;28;20121;-42
2021/12/26 02:31:11;;;;;;;7.53;2.50;;;-6.80;99.90;;;;;;5050278;28;20048;-41
2021/12/26 02:33:37;;;;;;;5.35;1.80;;;-6.80;99.90;;;;;;5054194;28;20036;-41
2021/12/26 02:36:05;;;;;;;5.00;2.13;;;-6.90;99.90;;;;;;5065370;28;20048;-41
2021/12/26 02:38:32;;;;;;;6.30;2.63;;;-6.90;99.90;;;;;;5055553;28;20037;-41
2021/12/26 02:40:59;;;;;;;7.50;2.50;;;-6.90;99.90;;;;;;5052601;28;20090;-42
2021/12/26 02:43:27;;;;;;;4.95;2.20;;;-6.90;99.90;;;;;;5057725;28;20141;-41
2021/12/26 02:45:54;;;;;;;5.25;1.88;;;-6.90;99.90;;;;;;5048964;28;20080;-41
2021/12/26 02:48:20;;;;;;;4.30;2.20;;;-6.90;99.90;;;;;;5032927;28;20049;-42
2021/12/26 02:50:50;;;;;;;4.85;2.28;;;-6.90;99.90;;;;;;5054269;28;20126;-41
2021/12/26 02:53:20;;;;;;;4.35;1.80;;;-6.90;99.90;;;;;;5054585;28;20044;-42
2021/12/26 02:55:57;;;;;;;3.45;1.67;;;-6.90;99.90;;;;;;5031936;28;20044;-41
2021/12/26 02:58:24;;;;;;;4.47;2.05;;;-6.90;99.90;;;;;;5067178;28;20048;-42
2021/12/26 03:01:15;;;;;;;7.93;2.25;;;-5.20;99.90;;;;;;5046818;28;20045;-42
2021/12/26 03:03:41;;;;;;;4.80;1.80;;;-6.90;99.90;;;;;;5069081;28;20071;-41
2021/12/26 03:06:18;;;;;;;5.65;1.83;;;-6.90;99.90;;;;;;5045340;28;20040;-42
2021/12/26 03:08:46;;;;;;;3.38;1.83;;;-6.20;99.90;;;;;;5048776;28;20160;-42
2021/12/26 03:11:13;;;;;;;4.35;1.75;;;-6.90;99.90;;;;;;5049644;28;20037;-41
2021/12/26 03:13:40;;;;;;;3.63;1.80;;;-6.90;99.90;;;;;;5049736;28;20486;-41
2021/12/26 03:16:06;;;;;;;3.47;1.80;;;-6.90;99.90;;;;;;5049282;28;20502;-41
2021/12/26 03:18:32;;;;;;;3.85;1.95;;;-6.90;99.90;;;;;;5049894;28;20067;-42
2021/12/26 03:20:58;;;;;;;4.45;1.90;;;-6.90;99.90;;;;;;5033865;28;20136;-42
2021/12/26 03:23:26;;;;;;;3.65;1.58;;;-6.90;99.90;;;;;;5043242;28;20055;-41
2021/12/26 03:25:57;;;;;;;5.53;2.00;;;-6.90;99.90;;;;;;5031553;28;20052;-41
2021/12/26 03:28:24;;;;;;;6.97;1.83;;;-6.80;99.90;;;;;;5040626;28;20161;-42
2021/12/26 03:30:52;;;;;;;4.23;1.60;;;-6.80;99.90;;;;;;5054145;28;20044;-42
2021/12/26 03:33:19;;;;;;;4.85;1.88;;;-6.80;99.90;;;;;;5049855;28;20037;-42
2021/12/26 03:35:46;;;;;;;4.35;1.85;;;-6.70;99.90;;;;;;5048203;28;20041;-41
2021/12/26 03:38:13;;;;;;;3.40;1.65;;;-6.80;99.90;;;;;;5049913;28;20049;-41
2021/12/26 03:40:40;;;;;;;4.70;1.77;;;-7.20;99.90;;;;;;5052100;28;20072;-42
2021/12/26 03:43:08;;;;;;;4.55;2.13;;;-6.80;99.90;;;;;;5083841;28;20044;-41
2021/12/26 03:45:35;;;;;;;3.25;1.80;;;-6.80;99.90;;;;;;5050147;28;20443;-42
2021/12/26 03:48:02;;;;;;;4.05;1.60;;;-6.80;99.90;;;;;;5048273;28;20049;-42
2021/12/26 03:50:30;;;;;;;4.43;1.70;;;-6.80;99.90;;;;;;5030240;28;20183;-41
2021/12/26 03:52:57;;;;;;;6.10;1.63;;;-6.80;99.90;;;;;;5056447;28;20278;-42
2021/12/26 03:55:26;;;;;;;3.72;2.03;;;-6.80;99.90;;;;;;5064532;28;20047;-41
2021/12/26 03:57:53;;;;;;;2.80;1.33;;;-6.80;99.90;;;;;;5048046;28;20555;-41
2021/12/26 04:00:21;;;;;;;3.55;1.70;;;-6.80;99.90;;;;;;5081549;28;20356;-41
2021/12/26 04:02:46;;;;;;;;;;;-6.80;99.90;;;;;;5088036;28;20099;-41
2021/12/26 04:05:13;;;;;;;5.20;1.90;;;-6.90;99.90;;;;;;5083540;28;19916;-41
2021/12/26 04:07:40;;;;;;;3.67;1.60;;;-6.90;99.90;;;;;;5057286;28;20501;-41
2021/12/26 04:10:08;;;;;;;3.97;1.92;;;-6.90;99.90;;;;;;5053171;28;20271;-41
2021/12/26 04:12:37;;;;;;;2.50;1.33;;;-6.90;99.90;;;;;;5052419;28;20072;-42
2021/12/26 04:15:08;;;;;;;4.13;1.50;;;-6.90;99.90;;;;;;5053566;28;20114;-42
2021/12/26 04:17:34;;;;;;;5.60;1.58;;;-8.30;99.90;;;;;;5052862;28;20052;-41
2021/12/26 04:20:00;;;;;;;7.85;2.38;;;-6.90;99.90;;;;;;5053130;28;20079;-41
2021/12/26 04:22:26;;;;;;;4.20;1.73;;;-6.90;99.90;;;;;;5057337;28;20048;-41
2021/12/26 04:24:52;;;;;;;6.07;1.88;;;-6.90;99.90;;;;;;5064226;28;20044;-41
2021/12/26 04:27:24;;;;;;;4.20;1.65;;;-6.90;99.90;;;;;;5067187;28;20483;-41
2021/12/26 04:29:51;;;;;;;5.10;1.70;;;-6.90;99.90;;;;;;5053030;28;20356;-42
2021/12/26 04:32:17;;;;;;;2.65;1.45;;;-6.80;99.90;;;;;;5067593;28;20063;-41
2021/12/26 04:34:43;;;;;;;5.55;1.85;;;-6.80;99.90;;;;;;5063407;28;20037;-41
2021/12/26 04:37:09;;;;;;;3.88;1.77;;;-6.80;99.90;;;;;;5045823;28;20548;-42
2021/12/26 04:39:36;;;;;;;4.30;2.10;;;-6.70;99.90;;;;;;5051643;28;20041;-42
2021/12/26 04:42:03;;;;;;;3.67;1.60;;;-6.70;99.90;;;;;;5052109;28;20105;-42
2021/12/26 04:44:29;;;;;;;;;;;-6.70;99.90;;;;;;5094285;28;20162;-41
2021/12/26 04:46:55;;;;;;;4.32;1.52;;;-6.70;99.90;;;;;;5056788;28;20453;-41
2021/12/26 04:49:21;;;;;;;4.18;1.45;;;-6.80;99.90;;;;;;5067793;28;20037;-41
2021/12/26 04:51:47;;;;;;;2.97;1.42;;;-6.80;99.90;;;;;;5042477;28;20113;-42
2021/12/26 04:54:13;;;;;;;6.47;1.45;;;-6.80;99.90;;;;;;5051008;28;20041;-42
2021/12/26 04:56:39;;;;;;;3.85;1.63;;;-6.90;99.90;;;;;;5050946;28;20052;-41
2021/12/26 04:59:06;;;;;;;2.55;1.15;;;-7.00;99.90;;;;;;5052604;28;20032;-41
2021/12/26 05:01:31;;;;;;;3.50;1.80;;;-7.00;99.90;;;;;;5050675;28;20459;-42
2021/12/26 05:03:57;;;;;;;3.15;1.52;;;-7.00;99.90;;;;;;5067565;28;20095;-41
2021/12/26 05:06:26;;;;;;;4.60;1.45;;;-7.10;99.90;;;;;;5023925;28;20085;-47
2021/12/26 05:08:52;;;;;;;3.72;1.60;;;-7.00;99.90;;;;;;5050537;28;20514;-41
2021/12/26 05:11:20;;;;;;;4.38;1.60;;;-7.10;99.90;;;;;;5053835;28;20423;-41
2021/12/26 05:13:45;;;;;;;4.70;1.50;;;-7.00;99.90;;;;;;5050997;28;20584;-41
2021/12/26 05:16:12;;;;;;;2.92;1.38;;;-7.10;99.90;;;;;;5059109;28;20047;-41
2021/12/26 05:18:39;;;;;;;4.15;1.52;;;-7.10;99.90;;;;;;5051452;28;20080;-41
2021/12/26 05:21:05;;;;;;;3.53;1.50;;;-7.10;99.90;;;;;;5051112;28;20144;-41
2021/12/26 05:23:31;;;;;;;3.85;1.77;;;-7.10;99.90;;;;;;5033389;28;20120;-42
2021/12/26 05:25:57;;;;;;;4.05;1.50;;;-7.10;99.90;;;;;;5052479;28;20040;-41
2021/12/26 05:28:23;;;;;;;3.28;1.50;;;-7.10;99.90;;;;;;5069062;28;20051;-41
2021/12/26 05:30:50;;;;;;;3.25;1.33;;;-7.10;99.90;;;;;;5037929;28;20049;-41
2021/12/26 05:33:16;;;;;;;5.05;2.13;;;-7.00;99.90;;;;;;5033739;28;20044;-41
2021/12/26 05:35:42;;;;;;;3.13;1.80;;;-7.00;99.90;;;;;;5036363;28;20449;-41
2021/12/26 05:38:09;;;;;;;4.07;1.70;;;-6.90;99.90;;;;;;5049854;28;20041;-41
2021/12/26 05:40:35;;;;;;;4.85;1.40;;;-6.40;99.90;;;;;;5064834;28;20151;-41
2021/12/26 05:43:01;;;;;;;2.65;1.13;;;-6.70;99.90;;;;;;5033648;28;20087;-41
2021/12/26 05:45:27;;;;;;;3.40;1.63;;;-6.60;99.90;;;;;;5048737;28;20047;-41
2021/12/26 05:47:53;;;;;;;2.53;1.70;;;-6.60;99.90;;;;;;5060497;28;20467;-41
2021/12/26 05:50:20;;;;;;;6.10;2.30;;;-6.60;99.90;;;;;;5051607;28;20044;-41
2021/12/26 05:52:47;;;;;;;4.78;1.83;;;-6.50;99.90;;;;;;5049752;28;20479;-41
2021/12/26 05:55:13;;;;;;;6.30;2.10;;;-6.60;99.90;;;;;;5050484;28;20041;-42
2021/12/26 05:57:40;;;;;;;4.72;1.70;;;-6.60;99.90;;;;;;5039739;28;20135;-41
2021/12/26 06:00:10;;;;;;;3.70;1.52;;;-6.80;99.90;;;;;;5050597;28;20041;-41
2021/12/26 06:02:36;;;;;;;3.15;1.75;;;-6.90;99.90;;;;;;5052270;28;20530;-41
2021/12/26 06:05:03;;;;;;;3.70;1.70;;;-6.90;99.90;;;;;;5058100;28;20044;-41
2021/12/26 06:07:28;;;;;;;6.72;2.03;;;-7.00;99.90;;;;;;5069469;28;20814;-42
2021/12/26 06:09:54;;;;;;;4.53;2.15;;;-7.00;99.90;;;;;;5035532;28;20127;-41
2021/12/26 06:12:20;;;;;;;2.75;1.67;;;-7.00;99.90;;;;;;5057752;28;20070;-41
2021/12/26 06:14:46;;;;;;;3.75;2.10;;;-7.00;99.90;;;;;;5052626;28;20516;-41
2021/12/26 06:17:12;;;;;;;3.97;2.00;;;-7.00;99.90;;;;;;5041067;28;20127;-41
2021/12/26 06:19:38;;;;;;;3.88;1.67;;;-7.00;99.90;;;;;;5064604;28;20056;-42
2021/12/26 06:22:06;;;;;;;4.55;1.83;;;-6.90;99.90;;;;;;5049582;28;20403;-41
2021/12/26 06:24:32;;;;;;;3.50;1.60;;;-6.90;99.90;;;;;;5049502;28;20590;-41
2021/12/26 06:26:58;;;;;;;3.60;1.80;;;-6.90;99.90;;;;;;5048883;28;20041;-42
2021/12/26 06:29:25;;;;;;;5.68;1.92;;;-7.00;99.90;;;;;;5032391;28;20052;-41
2021/12/26 06:31:51;;;;;;;6.03;2.35;;;-7.00;99.90;;;;;;5060736;28;20060;-41
2021/12/26 06:34:19;;;;;;;6.22;1.90;;;-7.00;99.90;;;;;;5050275;28;20472;-41
2021/12/26 06:36:45;;;;;;;5.50;2.40;;;-7.00;99.90;;;;;;5060427;28;20037;-41
2021/12/26 06:39:10;;;;;;;4.75;2.70;;;-6.90;99.90;;;;;;5050273;28;20052;-41
2021/12/26 06:41:38;;;;;;;6.70;2.28;;;-6.90;99.90;;;;;;5052580;28;20505;-41
2021/12/26 06:44:09;;;;;;;4.03;2.22;;;-6.90;99.90;;;;;;5048106;28;20044;-41
2021/12/26 06:46:37;;;;;;;4.47;1.88;;;-6.90;99.90;;;;;;5062188;28;20599;-41
2021/12/26 06:49:04;;;;;;;3.35;1.98;;;-6.90;99.90;;;;;;5048606;28;20060;-42
2021/12/26 06:51:31;;;;;;;4.88;2.20;;;-6.90;99.90;;;;;;5061920;28;20045;-41
2021/12/26 06:53:57;;;;;;;5.18;2.10;;;-6.90;99.90;;;;;;5050290;28;20118;-41
2021/12/26 06:56:23;;;;;;;5.43;2.25;;;-6.90;99.90;;;;;;5048624;28;20403;-41
2021/12/26 06:58:49;;;;;;;5.85;2.35;;;-6.90;99.90;;;;;;5066497;28;20032;-41
2021/12/26 07:01:15;;;;;;;5.47;3.03;;;-5.30;99.90;;;;;;5032211;28;20378;-41
2021/12/26 07:03:41;;;;;;;4.97;2.55;;;-7.00;99.90;;;;;;5068323;28;20129;-41
2021/12/26 07:06:06;;;;;;;6.45;2.58;;;-7.00;99.90;;;;;;5062336;28;20083;-41
2021/12/26 07:08:33;;;;;;;6.47;3.10;;;-7.00;99.90;;;;;;5067661;28;20084;-41
2021/12/26 07:10:58;;;;;;;8.23;3.00;;;-7.00;99.90;;;;;;5064681;28;20112;-42
2021/12/26 07:13:25;;;;;;;6.05;3.05;;;-7.00;99.90;;;;;;5056062;28;20120;-41
2021/12/26 07:15:51;;;;;;;5.22;2.65;;;-7.00;99.90;;;;;;5055506;28;20071;-41
2021/12/26 07:18:16;;;;;;;7.07;3.00;;;-7.00;99.90;;;;;;5029424;28;20044;-41
2021/12/26 07:20:42;;;;;;;6.43;3.40;;;-7.00;99.90;;;;;;5049607;28;20136;-41
2021/12/26 07:23:08;;;;;;;5.20;3.40;;;-7.10;99.90;;;;;;5031934;28;20475;-41
2021/12/26 07:25:35;;;;;;;6.88;3.17;;;-7.00;99.90;;;;;;5048668;28;20549;-42
2021/12/26 07:28:01;;;;;;;6.45;2.90;;;-7.00;99.90;;;;;;5050237;28;20492;-41
2021/12/26 07:30:28;;;;;;;6.28;2.70;;;-7.00;99.90;;;;;;5058436;28;20052;-41
2021/12/26 07:32:54;;;;;;;4.75;2.40;;;-6.50;99.90;;;;;;5050366;28;20468;-41
2021/12/26 07:35:19;;;;;;;5.90;2.70;;;-7.10;99.90;;;;;;5037919;28;20497;-41
2021/12/26 07:37:46;;;;;;;6.07;2.67;;;-7.00;99.90;;;;;;5081747;28;20124;-41
2021/12/26 07:40:12;;;;;;;6.22;2.45;;;-7.00;99.90;;;;;;5048182;28;20053;-41
2021/12/26 07:42:41;;;;;;;6.57;3.10;;;-7.00;99.90;;;;;;5049162;28;20144;-41
2021/12/26 07:45:07;;;;;;;7.35;2.58;;;-7.00;99.90;;;;;;5057369;28;20044;-41
2021/12/26 07:47:33;;;;;;;5.38;2.60;;;-7.00;99.90;;;;;;5053819;28;20043;-41
2021/12/26 07:49:59;;;;;;;6.38;3.10;;;-7.00;99.90;;;;;;5019634;28;20040;-41
2021/12/26 07:52:31;;;;;;;5.88;3.10;;;-7.00;99.90;;;;;;5038443;28;20091;-41
2021/12/26 07:54:57;;;;;;;5.53;2.97;;;-7.00;99.90;;;;;;5058060;28;20111;-41
2021/12/26 07:57:26;;;;;;;6.60;3.30;;;-7.00;99.90;;;;;;5052004;28;20116;-41
2021/12/26 07:59:53;;;;;;;3.75;2.53;;;-7.00;99.90;;;;;;5030533;28;20045;-41
2021/12/26 08:02:20;;;;;;;6.90;2.95;;;-6.90;99.90;;;;;;5035304;28;20499;-41
2021/12/26 08:04:47;;;;;;;5.60;2.95;;;-6.90;99.90;;;;;;5053360;28;20040;-41
2021/12/26 08:07:13;;;;;;;6.38;2.88;;;-6.90;99.90;;;;;;5066275;28;20033;-41
2021/12/26 08:09:39;;;;;;;4.68;3.00;;;-6.90;99.90;;;;;;5052371;28;20648;-41
2021/12/26 08:12:24;;;;;;;6.45;3.55;;;-6.90;99.90;;;;;;5056552;28;20094;-40
2021/12/26 08:14:50;;;;;;;8.70;3.80;;;-6.80;99.90;;;;;;5055071;28;20051;-40
2021/12/26 08:17:16;;;;;;;7.78;3.85;;;-6.80;99.90;;;;;;5067788;28;20495;-41
2021/12/26 08:19:42;;;;;;;4.82;3.00;;;-6.80;99.90;;;;;;5061809;28;20662;-41
2021/12/26 08:22:09;;;;;;;6.90;3.70;;;-6.80;99.90;;;;;;5038640;28;20143;-41
2021/12/26 08:24:36;;;;;;;5.63;4.35;;;-6.70;99.90;;;;;;5048709;28;20360;-41
2021/12/26 08:27:05;;;;;;;5.63;3.70;;;-6.70;99.90;;;;;;5043054;28;20041;-41
2021/12/26 08:29:31;;;;;;;5.95;3.40;;;-6.70;99.90;;;;;;5037193;28;20044;-41
2021/12/26 08:31:59;;;;;;;7.95;3.50;;;-6.70;99.90;;;;;;5042407;28;20032;-41
2021/12/26 08:34:26;;;;;;;4.93;3.30;;;-7.30;99.90;;;;;;5063846;28;20187;-41
2021/12/26 08:36:59;;;;;;;6.90;3.22;;;-6.60;99.90;;;;;;5067594;28;20486;-41
2021/12/26 08:39:27;;;;;;;7.53;3.50;;;-6.60;99.90;;;;;;5056318;28;20120;-41
2021/12/26 08:41:53;;;;;;;6.15;3.50;;;-6.60;99.90;;;;;;5055979;28;20079;-41
2021/12/26 08:44:19;;;;;;;10.30;3.63;;;-6.50;99.90;;;;;;5041074;28;20048;-41
2021/12/26 08:46:46;;;;;;;6.47;3.22;;;-6.50;99.90;;;;;;5051493;28;20123;-41
2021/12/26 08:49:14;;;;;;;5.75;3.35;;;-6.40;99.90;;;;;;5054944;28;20045;-41
2021/12/26 08:51:42;;;;;;;7.15;3.92;;;-6.40;99.90;;;;;;5053758;28;20045;-41
2021/12/26 08:54:10;;;;;;;6.07;3.35;;;-6.30;99.90;;;;;;5052116;28;20051;-41
2021/12/26 08:56:36;;;;;;;7.60;3.53;;;-6.30;99.90;;;;;;5050814;28;20045;-42
2021/12/26 08:59:03;;;;;;;7.43;3.30;;;-6.20;99.90;;;;;;5051128;28;20059;-41
2021/12/26 09:01:29;;;;;;;4.93;3.13;;;-6.20;99.90;;;;;;5052269;28;20045;-41
2021/12/26 09:03:55;;;;;;;7.57;3.15;;;-6.10;99.90;;;;;;5051076;28;20106;-41
2021/12/26 09:06:21;;;;;;;7.47;2.92;;;-6.10;99.90;;;;;;5049305;28;20662;-42
2021/12/26 09:08:47;;;;;;;4.88;2.80;;;-6.00;99.90;;;;;;5053741;28;20052;-41
2021/12/26 09:11:13;;;;;;;5.50;2.95;;;-6.00;99.90;;;;;;5054972;28;20041;-41
2021/12/26 09:13:39;;;;;;;6.15;3.08;;;-5.90;99.90;;;;;;5050085;28;20044;-41
2021/12/26 09:16:05;;;;;;;3.83;2.30;;;-6.10;99.90;;;;;;5051961;28;20056;-42
2021/12/26 09:18:31;;;;;;;5.10;2.80;;;-5.80;99.90;;;;;;5063836;28;20076;-42
2021/12/26 09:20:57;;;;;;;6.10;3.35;;;-5.80;99.90;;;;;;5035688;28;20077;-42
2021/12/26 09:23:23;;;;;;;5.55;3.33;;;-5.70;99.90;;;;;;5063127;28;20056;-41
2021/12/26 09:25:49;;;;;;;5.22;3.05;;;-5.60;99.90;;;;;;5033368;28;20048;-41
2021/12/26 09:28:15;;;;;;;4.70;3.40;;;-5.60;99.90;;;;;;5035925;28;20036;-41
2021/12/26 09:30:41;;;;;;;6.28;2.90;;;-5.60;99.90;;;;;;5066998;28;20107;-42
2021/12/26 09:33:07;;;;;;;5.43;3.10;;;-5.50;99.90;;;;;;5040995;28;20119;-42
2021/12/26 09:35:33;;;;;;;4.82;2.47;;;-5.50;99.90;;;;;;5098586;28;20131;-42
2021/12/26 09:38:00;;;;;;;4.45;2.35;;;-5.40;99.90;;;;;;5051351;28;20617;-42
2021/12/26 09:40:26;;;;;;;8.77;3.03;;;-5.40;99.90;;;;;;5045759;28;20048;-42
2021/12/26 09:42:53;;;;;;;6.60;3.03;;;-5.30;99.90;;;;;;5033966;28;20373;-42
2021/12/26 09:45:20;;;;;;;9.60;3.45;;;-5.20;99.90;;;;;;5050394;28;20055;-42
2021/12/26 09:47:50;;;;;;;5.03;2.58;;;-5.20;99.90;;;;;;5049882;28;20121;-41
2021/12/26 09:50:18;;;;;;;5.72;3.45;;;-5.10;99.90;;;;;;5048999;28;20049;-41
2021/12/26 09:52:47;;;;;;;6.80;2.90;;;-5.10;99.90;;;;;;5071522;28;20079;-42
2021/12/26 09:55:14;;;;;;;5.82;2.95;;;-5.00;99.90;;;;;;5068007;28;20115;-41
2021/12/26 09:57:40;;;;;;;5.72;3.20;;;-4.90;99.90;;;;;;5051355;28;20045;-41
2021/12/26 10:00:22;;;;;;;5.85;3.03;;;-4.80;99.90;;;;;;5050951;28;20407;-42
2021/12/26 10:03:17;;;;;;;6.38;3.10;;;-4.80;99.90;;;;;;5050798;28;20045;-42
2021/12/26 10:05:55;;;;;;;4.53;2.70;;;-4.70;99.90;;;;;;5046774;28;20487;-43
2021/12/26 10:08:22;;;;;;;4.95;3.00;;;-4.60;99.90;;;;;;5052064;28;20037;-42
2021/12/26 10:11:05;;;;;;;5.55;3.08;;;-4.60;99.90;;;;;;5048796;28;20423;-41
2021/12/26 10:13:39;;;;;;;4.57;2.75;;;-4.50;99.90;;;;;;5050411;28;20045;-42
2021/12/26 10:16:05;;;;;;;6.03;3.10;;;-4.40;99.90;;;;;;5046094;28;20064;-42
2021/12/26 10:18:31;;;;;;;6.78;3.20;;;-4.40;99.90;;;;;;5059324;28;20182;-41
2021/12/26 10:20:57;;;;;;;7.57;3.28;;;-4.30;99.90;;;;;;5037609;28;20139;-43
2021/12/26 10:23:28;;;;;;;7.43;3.17;;;-4.20;99.90;;;;;;5066221;28;20055;-42
2021/12/26 10:25:54;;;;;;;5.03;3.05;;;-4.20;99.90;;;;;;5049455;28;20175;-43
2021/12/26 10:28:20;;;;;;;5.90;2.92;;;-4.10;99.90;;;;;;5049416;28;20132;-43
2021/12/26 10:30:46;;;;;;;6.47;3.03;;;-4.00;99.90;;;;;;5032216;28;20183;-43
2021/12/26 10:33:13;;;;;;;5.50;3.00;;;-3.90;99.90;;;;;;5050708;28;20111;-43
2021/12/26 10:35:40;;;;;;;5.68;3.53;;;-3.80;99.90;;;;;;5050803;28;20040;-43
2021/12/26 10:38:15;;;;;;;4.88;2.85;;;-3.70;99.90;;;;;;5052589;28;20090;-43
2021/12/26 10:40:41;;;;;;;5.15;3.25;;;-3.70;99.90;;;;;;5070456;28;20117;-43
2021/12/26 10:43:10;;;;;;;5.25;3.08;;;-3.60;99.90;;;;;;5063734;28;20051;-43
2021/12/26 10:45:36;;;;;;;4.25;2.80;;;-3.50;99.90;;;;;;5045608;28;20037;-43
2021/12/26 10:48:07;;;;;;;6.40;3.25;;;-3.50;99.90;;;;;;5048947;28;20041;-43
2021/12/26 10:50:38;;;;;;;6.97;3.40;;;-3.40;99.90;;;;;;5067101;28;20103;-43
2021/12/26 10:53:11;;;;;;;8.02;3.22;;;-3.40;99.90;;;;;;5056250;28;20048;-44
2021/12/26 10:55:42;;;;;;;4.72;3.10;;;-3.30;99.90;;;;;;5055866;28;20048;-44
2021/12/26 10:58:14;;;;;;;8.40;3.42;;;-3.20;99.90;;;;;;5054317;28;20048;-44
2021/12/26 11:00:44;;;;;;;5.78;3.42;;;-3.20;99.90;;;;;;5050187;28;20124;-45
2021/12/26 11:03:17;;;;;;;7.10;3.90;;;-3.10;99.90;;;;;;5049902;28;20506;-44
2021/12/26 11:05:46;;;;;;;9.80;3.50;;;-3.10;99.90;;;;;;5068754;28;20098;-44
2021/12/26 11:08:16;;;;;;;5.32;2.80;;;-3.00;99.90;;;;;;5053336;28;20045;-44
2021/12/26 11:10:53;;;;;;;5.47;3.33;;;-2.40;99.90;;;;;;5048802;28;20033;-45
2021/12/26 11:13:31;;;;;;;4.25;3.00;;;-2.90;99.90;;;;;;5045494;28;20117;-44
2021/12/26 11:16:04;;;;;;;7.63;3.53;;;-2.90;99.90;;;;;;5048068;28;20044;-44
2021/12/26 11:18:30;;;;;;;7.57;3.60;;;-2.80;99.90;;;;;;5048565;28;20116;-44
2021/12/26 11:21:00;;;;;;;5.20;3.10;;;-2.80;99.90;;;;;;5046855;28;20582;-44
2021/12/26 11:23:34;;;;;;;6.00;3.35;;;-2.70;99.90;;;;;;5060050;28;20041;-45
2021/12/26 11:26:07;;;;;;;6.32;3.40;;;-2.70;99.90;;;;;;5034926;28;20110;-44
2021/12/26 11:28:36;;;;;;;6.78;3.28;;;-2.60;99.90;;;;;;5041626;28;20067;-45
2021/12/26 11:31:13;;;;;;;5.03;3.20;;;-2.50;99.90;;;;;;5065184;28;20136;-44
2021/12/26 11:33:40;;;;;;;7.95;3.35;;;-2.50;99.90;;;;;;5081933;28;20044;-46
2021/12/26 11:36:10;;;;;;;6.68;3.47;;;-2.40;99.90;;;;;;5054274;28;20113;-46
2021/12/26 11:38:38;;;;;;;5.47;3.08;;;-2.40;99.90;;;;;;5070018;28;20044;-45
2021/12/26 11:41:17;;;;;;;4.35;2.88;;;-2.40;99.90;;;;;;5048619;28;20067;-44
2021/12/26 11:43:55;;;;;;;5.75;2.97;;;-2.30;99.90;;;;;;5048483;28;20041;-45
2021/12/26 11:46:30;;;;;;;5.68;3.03;;;-2.30;99.90;;;;;;5059954;28;20044;-44
2021/12/26 11:49:25;;;;;;;6.40;3.15;;;-2.20;99.90;;;;;;5049836;28;20139;-45
2021/12/26 11:52:11;;;;;;;5.45;3.25;;;-2.20;99.90;;;;;;5051575;28;20125;-45
2021/12/26 11:54:58;;;;;;;5.32;3.00;;;-2.10;99.90;;;;;;5082013;28;20053;-44
2021/12/26 11:57:33;;;;;;;5.68;2.95;;;-2.10;99.90;;;;;;5048015;28;20045;-44
2021/12/26 12:00:17;;;;;;;6.65;3.05;;;-2.00;99.90;;;;;;5061672;28;20354;-46
2021/12/26 12:02:45;;;;;;;6.40;3.15;;;-2.00;99.90;;;;;;5081451;28;20529;-45
2021/12/26 12:05:14;;;;;;;5.95;2.83;;;-1.90;99.90;;;;;;5049537;28;20045;-44
2021/12/26 12:07:49;;;;;;;4.75;2.85;;;-1.90;99.90;;;;;;5047742;28;20049;-44
2021/12/26 12:10:41;;;;;;;5.55;2.90;;;-1.90;99.90;;;;;;5047756;28;20159;-45
2021/12/26 12:13:09;;;;;;;6.63;3.17;;;-1.90;99.90;;;;;;5049158;28;20041;-45
2021/12/26 12:15:55;;;;;;;5.97;3.42;;;-1.80;99.90;;;;;;5049408;28;20048;-45
2021/12/26 12:18:21;;;;;;;6.78;2.92;;;-1.80;99.90;;;;;;5052118;28;20468;-45
2021/12/26 12:21:06;;;;;;;6.78;3.28;;;-1.80;99.90;;;;;;5049038;28;20140;-44
2021/12/26 12:23:32;;;;;;;5.50;2.80;;;-1.70;99.90;;;;;;5047972;28;20049;-44
2021/12/26 12:25:58;;;;;;;4.75;2.88;;;-1.70;99.90;;;;;;5064844;28;20475;-46
2021/12/26 12:28:31;;;;;;;7.18;3.00;;;-1.70;99.90;;;;;;5068430;28;20041;-45
2021/12/26 12:31:16;;;;;;;5.50;2.88;;;-1.70;99.90;;;;;;5053311;28;20103;-44
2021/12/26 12:33:43;;;;;;;6.05;3.25;;;-1.70;99.90;;;;;;5051165;28;20095;-45
2021/12/26 12:36:13;;;;;;;5.40;2.97;;;-1.70;99.90;;;;;;5067561;28;20498;-46
2021/12/26 12:38:46;;;;;;;4.93;2.95;;;-1.60;99.90;;;;;;5050916;28;20076;-45
2021/12/26 12:41:30;;;;;;;5.13;2.80;;;-1.60;99.90;;;;;;5052741;28;20103;-44
2021/12/26 12:44:22;;;;;;;7.22;3.13;;;-1.60;99.90;;;;;;5052673;28;20055;-46
2021/12/26 12:46:52;;;;;;;5.32;2.97;;;-1.50;99.90;;;;;;5066519;28;20040;-45
2021/12/26 12:49:20;;;;;;;6.10;2.72;;;-1.50;99.90;;;;;;5072259;28;20033;-46
2021/12/26 12:51:48;;;;;;;5.50;3.05;;;-1.50;99.90;;;;;;5070414;28;20114;-46
2021/12/26 12:54:25;;;;;;;4.60;2.63;;;-1.40;99.90;;;;;;5063539;28;20060;-46
2021/12/26 12:56:51;;;;;;;6.00;2.70;;;-1.40;99.90;;;;;;5050825;28;20056;-45
2021/12/26 12:59:20;;;;;;;4.53;2.45;;;-1.40;99.90;;;;;;5084362;28;20115;-45